Portland, Oregon
Traffic Map
Current Weather Conditions
Portland, Oregon
Broken Clouds
Broken Clouds

Feels Like: 6°
Wind Chill: Ceiling: 4400
Heat Index: Visibility: 10mi
Dew Point: Wind: 3mph
Humidity: 89% Direction: 220° (SW)
Pressure: 30.11in Gusts: 0mph
Raw Report DataKPDX 220153Z 22003KT 10SM BKN044 BKN120 06/04 A3011 RMK AO2 SLP194 T00610044 $
Traffic Incident Summary
Active as of:
Severity:
Category:
InformationThere was an issue retrieving the traffic information for this location. Please try a different location or try again shortly.
Advertisements
Track Severe Weather on mobile